Accueil
METAR-TAF:

METAR-TAF

Aéroports :

Fairbanks, Alaska, États-Unis

latitude: 64-48-14N, longitude: 147-52-34W, altitude: 132 m

Observation

Le bulletin a été fait il y a 52 minutes, à 01:53 UTC
Vent 5 kt de sud
Température -14°C
Humidité 66%
Pression 1019 hPa
Visibilité: 16.1 km
Quelques nuages à une hauteur de 7500 ft
Quelques nuages à une hauteur de 20000 ft

METAR: PAFA 220153Z 19005KT 10SM FEW075 FEW200 M14/M19 A3010 RMK AO2 SLP208 T11391194 PNO

Heure: 17:45 (02:45 UTC)

Prévision

Le bulletin a été fait il y a 3 heures et 19 minutes, à 23:26 UTC
Prévision valable du 22 à 00 UTC au 23 à 06 UTC
Vent 4 kt de direction variable
Visibilité: 10 km
Nuages épars à une hauteur de 5000 ft

TAF: PAFA 212326Z 2200/2306 VRB04KT P6SM SCT050

Observations et prévisions météorologiques de plus de 4000 aéroports (messages METAR et TAF).

Les stations disponibles sont représentées par des disques jaunes et rouges sur la carte.

Passer la souris dessus pour voir le nom de la station.

Cliquer dessus pour voir les observations et prévisions météorologiques.

Pour changer de carte: cliquez sur les boutons verts avec une croix noire pour zoomer, sur le bouton vert avec un tiret pour effectuer un zoom arrière, ou sur les flèches vertes pour les cartes adjacentes.


METAR-TAF: